createdAt,value
2023-03-12T00:00:48.524Z,5.65
2023-03-12T00:02:21.509Z,5.66
2023-03-12T00:03:54.167Z,5.67
2023-03-12T00:05:27.255Z,5.70
2023-03-12T00:06:58.797Z,5.69
2023-03-12T00:08:30.369Z,5.69
2023-03-12T00:10:02.233Z,5.66
2023-03-12T00:11:33.871Z,5.63
2023-03-12T00:13:05.500Z,5.63
2023-03-12T00:14:37.282Z,5.65
2023-03-12T00:16:10.558Z,5.68
2023-03-12T00:17:42.374Z,5.65
2023-03-12T00:19:14.645Z,5.63
2023-03-12T00:20:54.329Z,5.64
2023-03-12T00:22:26.185Z,5.63
2023-03-12T00:23:59.146Z,5.59
2023-03-12T00:25:30.720Z,5.59
2023-03-12T00:27:02.386Z,5.62
2023-03-12T00:28:35.202Z,5.60
2023-03-12T00:30:07.570Z,5.60
2023-03-12T00:31:39.751Z,5.59
2023-03-12T00:33:12.194Z,5.59
2023-03-12T00:34:44.303Z,5.60
2023-03-12T00:36:17.474Z,5.58
2023-03-12T00:37:49.106Z,5.57
2023-03-12T00:39:20.749Z,5.57
2023-03-12T00:40:52.796Z,5.56
2023-03-12T00:42:24.426Z,5.58
2023-03-12T00:43:56.321Z,5.60
2023-03-12T00:45:28.267Z,5.60
2023-03-12T00:47:00.007Z,5.63
2023-03-12T00:48:31.743Z,5.59
2023-03-12T00:50:03.707Z,5.62
2023-03-12T00:51:36.686Z,5.63
2023-03-12T00:53:08.416Z,5.64
2023-03-12T00:54:40.079Z,5.68
2023-03-12T00:56:11.863Z,5.71
2023-03-12T00:57:43.432Z,5.72
2023-03-12T00:59:15.400Z,5.69
2023-03-12T01:00:47.106Z,5.63
2023-03-12T01:02:18.796Z,5.64
2023-03-12T01:03:52.119Z,5.64
2023-03-12T01:05:24.209Z,5.64
2023-03-12T01:06:57.159Z,5.62
2023-03-12T01:08:28.763Z,5.61
2023-03-12T01:10:00.484Z,5.64
2023-03-12T01:11:32.837Z,5.61
2023-03-12T01:13:04.452Z,5.58
2023-03-12T01:14:36.173Z,5.56
2023-03-12T01:16:07.963Z,5.56
2023-03-12T01:17:39.587Z,5.56
2023-03-12T01:19:11.172Z,5.59
2023-03-12T01:20:44.244Z,5.58
2023-03-12T01:22:17.518Z,5.60
2023-03-12T01:23:49.236Z,5.60
2023-03-12T01:25:20.816Z,5.55
2023-03-12T01:26:52.497Z,5.56
2023-03-12T01:28:24.577Z,5.54
2023-03-12T01:29:56.480Z,5.55
2023-03-12T01:31:28.202Z,5.55
2023-03-12T01:32:59.838Z,5.50
2023-03-12T01:34:33.443Z,5.43
2023-03-12T01:36:05.614Z,5.45
2023-03-12T01:37:38.688Z,5.42
2023-03-12T01:39:10.446Z,5.41
2023-03-12T01:40:42.757Z,5.39
2023-03-12T01:42:14.320Z,5.39
2023-03-12T01:43:46.277Z,5.39
2023-03-12T01:45:36.451Z,5.34
2023-03-12T01:47:08.760Z,5.33
2023-03-12T01:48:42.646Z,5.34
2023-03-12T01:50:14.504Z,5.30
2023-03-12T01:51:49.345Z,5.35
2023-03-12T01:53:22.928Z,5.34
2023-03-12T01:54:56.728Z,5.31
2023-03-12T01:56:30.498Z,5.31
2023-03-12T01:58:02.412Z,5.32
2023-03-12T01:59:37.365Z,5.34
2023-03-12T02:01:09.085Z,5.31
2023-03-12T02:02:41.482Z,5.33
2023-03-12T02:04:15.276Z,5.30
2023-03-12T02:05:49.375Z,5.34
2023-03-12T02:07:21.001Z,5.36
2023-03-12T02:08:54.844Z,5.36
2023-03-12T02:10:26.769Z,5.34
2023-03-12T02:11:58.363Z,5.36
2023-03-12T02:13:30.236Z,5.35
2023-03-12T02:15:02.162Z,5.35
2023-03-12T02:16:34.156Z,5.40
2023-03-12T02:18:07.030Z,5.50
2023-03-12T02:19:42.542Z,5.54
2023-03-12T02:21:16.501Z,5.54
2023-03-12T02:22:51.655Z,5.51
2023-03-12T02:24:30.551Z,5.48
2023-03-12T02:26:04.232Z,5.48
2023-03-12T02:27:37.591Z,5.52
2023-03-12T02:29:10.308Z,5.60
2023-03-12T02:30:44.495Z,5.67
2023-03-12T02:32:20.271Z,5.76
2023-03-12T02:33:53.150Z,5.82
2023-03-12T02:35:24.765Z,5.81
2023-03-12T02:36:56.596Z,5.82
2023-03-12T02:38:36.779Z,5.82
2023-03-12T02:40:13.291Z,5.88
2023-03-12T02:41:48.633Z,5.89
2023-03-12T02:43:21.742Z,5.89
2023-03-12T02:44:53.746Z,5.85
2023-03-12T02:46:25.560Z,5.82
2023-03-12T02:47:57.284Z,5.78
2023-03-12T02:49:30.142Z,5.72
2023-03-12T02:51:03.260Z,5.66
2023-03-12T02:52:37.266Z,5.62
2023-03-12T02:54:09.030Z,5.59
2023-03-12T02:55:40.591Z,5.60
2023-03-12T02:57:13.549Z,5.61
2023-03-12T02:58:45.263Z,5.60
2023-03-12T03:00:17.432Z,5.55
2023-03-12T03:01:54.436Z,5.50
2023-03-12T03:03:26.042Z,5.47
2023-03-12T03:04:58.747Z,5.43
2023-03-12T03:06:31.276Z,5.44
2023-03-12T03:08:02.909Z,5.39
2023-03-12T03:09:34.541Z,5.41
2023-03-12T03:11:06.744Z,5.45
2023-03-12T03:12:39.962Z,5.46
2023-03-12T03:14:12.383Z,5.46
2023-03-12T03:15:44.206Z,5.42
2023-03-12T03:17:15.802Z,5.46
2023-03-12T03:18:47.674Z,5.48
2023-03-12T03:20:20.019Z,5.49
2023-03-12T03:21:51.591Z,5.50
2023-03-12T03:23:23.193Z,5.51
2023-03-12T03:24:54.851Z,5.51
2023-03-12T03:26:26.502Z,5.51
2023-03-12T03:27:59.646Z,5.49
2023-03-12T03:29:31.338Z,5.49
2023-03-12T03:31:05.373Z,5.48
2023-03-12T03:32:40.237Z,5.49
2023-03-12T03:34:13.245Z,5.46
2023-03-12T03:35:45.048Z,5.47
2023-03-12T03:37:17.173Z,5.51
2023-03-12T03:38:50.522Z,5.52
2023-03-12T03:40:22.951Z,5.51
2023-03-12T03:41:54.631Z,5.54
2023-03-12T03:43:30.449Z,5.54
2023-03-12T03:45:02.098Z,5.54
2023-03-12T03:46:35.530Z,5.55
2023-03-12T03:48:10.322Z,5.57
2023-03-12T03:49:41.938Z,5.57
2023-03-12T03:51:13.870Z,5.56
2023-03-12T03:52:49.388Z,5.56
2023-03-12T03:54:21.008Z,5.56
2023-03-12T03:55:52.971Z,5.56
2023-03-12T03:57:24.606Z,5.56
2023-03-12T03:58:57.746Z,5.54
2023-03-12T04:00:29.387Z,5.52
2023-03-12T04:02:02.257Z,5.55
2023-03-12T04:03:35.405Z,5.59
2023-03-12T04:05:09.340Z,5.61
2023-03-12T04:06:40.963Z,5.62
2023-03-12T04:08:12.790Z,5.61
2023-03-12T04:09:44.702Z,5.62
2023-03-12T04:11:17.407Z,5.63
2023-03-12T04:12:51.868Z,5.61
2023-03-12T04:14:25.575Z,5.60
2023-03-12T04:15:57.542Z,5.63
2023-03-12T04:17:29.219Z,5.65
2023-03-12T04:19:01.774Z,5.65
2023-03-12T04:20:33.495Z,5.63
2023-03-12T04:22:05.200Z,5.63
2023-03-12T04:23:37.503Z,5.64
2023-03-12T04:25:09.540Z,5.68
2023-03-12T04:26:41.326Z,5.67
2023-03-12T04:28:13.219Z,5.72
2023-03-12T04:29:46.186Z,5.73
2023-03-12T04:31:18.032Z,5.75
2023-03-12T04:32:54.740Z,5.75
2023-03-12T04:34:26.432Z,5.73
2023-03-12T04:35:59.817Z,5.78
2023-03-12T04:37:32.461Z,5.77
2023-03-12T04:39:07.234Z,5.78
2023-03-12T04:40:38.946Z,5.77
2023-03-12T04:42:11.336Z,5.76
2023-03-12T04:43:44.680Z,5.77
2023-03-12T04:45:18.193Z,5.74
2023-03-12T04:46:51.556Z,5.74
2023-03-12T04:48:27.466Z,5.76
2023-03-12T04:49:59.269Z,5.75
2023-03-12T04:51:31.819Z,5.75
2023-03-12T04:53:03.753Z,5.76
2023-03-12T04:54:35.375Z,5.83
2023-03-12T04:56:07.170Z,5.85
2023-03-12T04:57:38.773Z,5.83
2023-03-12T04:59:10.765Z,5.83
2023-03-12T05:00:44.301Z,5.81
2023-03-12T05:02:16.376Z,5.76
2023-03-12T05:03:48.074Z,5.79
2023-03-12T05:05:19.968Z,5.76
2023-03-12T05:06:51.536Z,5.76
2023-03-12T05:08:23.149Z,5.75
2023-03-12T05:09:54.699Z,5.73
2023-03-12T05:11:26.289Z,5.67
2023-03-12T05:12:57.903Z,5.66
2023-03-12T05:14:30.364Z,5.67
2023-03-12T05:16:03.847Z,5.65
2023-03-12T05:17:35.902Z,5.65
2023-03-12T05:19:08.336Z,5.64
2023-03-12T05:20:40.180Z,5.59
2023-03-12T05:22:12.193Z,5.60
2023-03-12T05:23:44.575Z,5.58
2023-03-12T05:25:17.005Z,5.59
2023-03-12T05:26:48.661Z,5.54
2023-03-12T05:28:27.859Z,5.53
2023-03-12T05:30:01.652Z,5.54
2023-03-12T05:31:35.523Z,5.54
2023-03-12T05:33:09.449Z,5.50
2023-03-12T05:34:41.059Z,5.52
2023-03-12T05:36:13.443Z,5.59
2023-03-12T05:37:45.308Z,5.60
2023-03-12T05:39:17.072Z,5.59
2023-03-12T05:40:53.286Z,5.63
2023-03-12T05:42:25.152Z,5.62
2023-03-12T05:43:57.265Z,5.58
2023-03-12T05:45:29.011Z,5.58
2023-03-12T05:47:04.223Z,5.57
2023-03-12T05:48:35.802Z,5.53
2023-03-12T05:50:09.561Z,5.54
2023-03-12T05:51:43.572Z,5.51
2023-03-12T05:53:15.862Z,5.55
2023-03-12T05:54:48.393Z,5.55
2023-03-12T05:56:20.107Z,5.52
2023-03-12T05:57:52.651Z,5.48
2023-03-12T05:59:24.381Z,5.48
2023-03-12T06:00:57.431Z,5.44
2023-03-12T06:02:30.474Z,5.40
2023-03-12T06:04:02.170Z,5.45
2023-03-12T06:05:36.065Z,5.45
2023-03-12T06:07:07.676Z,5.40
2023-03-12T06:08:40.130Z,5.31
2023-03-12T06:10:12.053Z,5.22
2023-03-12T06:11:43.695Z,5.09
2023-03-12T06:13:15.510Z,5.00
2023-03-12T06:14:47.248Z,5.01
2023-03-12T06:16:20.293Z,5.00
2023-03-12T06:17:53.536Z,5.00
2023-03-12T06:19:25.056Z,5.02
2023-03-12T06:20:56.799Z,5.02
2023-03-12T06:22:29.427Z,5.07
2023-03-12T06:24:01.256Z,5.06
2023-03-12T06:25:47.561Z,5.09
2023-03-12T06:27:19.401Z,5.12
2023-03-12T06:28:51.522Z,5.14
2023-03-12T06:30:23.151Z,5.07
2023-03-12T06:31:56.086Z,5.09
2023-03-12T06:33:29.146Z,5.09
2023-03-12T06:35:00.942Z,5.11
2023-03-12T06:36:32.614Z,5.16
2023-03-12T06:38:04.249Z,5.21
2023-03-12T06:39:36.464Z,5.23
2023-03-12T06:41:08.816Z,5.24
2023-03-12T06:42:40.473Z,5.23
2023-03-12T06:44:12.143Z,5.23
2023-03-12T06:45:43.703Z,5.22
2023-03-12T06:47:17.514Z,5.24
2023-03-12T06:48:50.689Z,5.27
2023-03-12T06:50:22.310Z,5.22
2023-03-12T06:51:54.284Z,5.27
2023-03-12T06:53:25.936Z,5.25
2023-03-12T06:54:57.581Z,5.34
2023-03-12T06:56:29.440Z,5.39
2023-03-12T06:58:02.202Z,5.41
2023-03-12T06:59:33.789Z,5.43
2023-03-12T07:01:05.752Z,5.52
2023-03-12T07:02:37.455Z,5.55
2023-03-12T07:04:10.577Z,5.54
2023-03-12T07:05:43.899Z,5.50
2023-03-12T07:07:17.084Z,5.52
2023-03-12T07:08:48.835Z,5.51
2023-03-12T07:10:20.649Z,5.51
2023-03-12T07:11:52.418Z,5.54
2023-03-12T07:13:23.973Z,5.57
2023-03-12T07:14:55.592Z,5.55
2023-03-12T07:16:27.294Z,5.57
2023-03-12T07:17:59.665Z,5.58
2023-03-12T07:19:32.914Z,5.60
2023-03-12T07:21:04.920Z,5.65
2023-03-12T07:22:36.640Z,5.69
2023-03-12T07:24:08.886Z,5.74
2023-03-12T07:25:41.743Z,5.75
2023-03-12T07:27:13.491Z,5.74
2023-03-12T07:28:45.211Z,5.75
2023-03-12T07:30:17.168Z,5.74
2023-03-12T07:31:48.772Z,5.68
2023-03-12T07:33:21.428Z,5.69
2023-03-12T07:34:54.651Z,5.68
2023-03-12T07:36:26.479Z,5.74
2023-03-12T07:37:58.662Z,5.73
2023-03-12T07:39:30.298Z,5.75
2023-03-12T07:41:01.886Z,5.76
2023-03-12T07:42:33.772Z,5.77
2023-03-12T07:44:05.446Z,5.79
2023-03-12T07:45:37.115Z,5.79
2023-03-12T07:47:22.682Z,5.81
2023-03-12T07:48:55.282Z,5.84
2023-03-12T07:50:28.440Z,5.86
2023-03-12T07:52:00.854Z,5.89
2023-03-12T07:53:32.553Z,5.89
2023-03-12T07:55:04.544Z,5.92
2023-03-12T07:56:36.288Z,5.96
2023-03-12T07:58:08.088Z,6.00
2023-03-12T07:59:39.868Z,6.03
2023-03-12T08:01:11.470Z,6.03
2023-03-12T08:02:43.228Z,6.05
2023-03-12T08:04:15.018Z,6.07
2023-03-12T08:05:55.259Z,6.10
2023-03-12T08:07:32.155Z,6.08
2023-03-12T08:09:03.917Z,6.10
2023-03-12T08:10:36.231Z,6.11
2023-03-12T08:12:08.177Z,6.12
2023-03-12T08:13:39.821Z,6.11
2023-03-12T08:15:12.786Z,6.14
2023-03-12T08:16:44.611Z,6.14
2023-03-12T08:18:16.257Z,6.17
2023-03-12T08:19:48.228Z,6.14
2023-03-12T08:21:21.381Z,6.19
2023-03-12T08:22:52.941Z,6.15
2023-03-12T08:24:24.811Z,6.12
2023-03-12T08:25:56.381Z,6.05
2023-03-12T08:27:28.051Z,6.03
2023-03-12T08:29:02.728Z,6.08
2023-03-12T08:30:34.531Z,6.07
2023-03-12T08:32:06.354Z,6.06
2023-03-12T08:33:41.238Z,6.04
2023-03-12T08:35:12.867Z,5.98
2023-03-12T08:36:45.908Z,5.96
2023-03-12T08:38:17.844Z,6.00
2023-03-12T08:39:49.430Z,5.98
2023-03-12T08:41:20.994Z,6.00
2023-03-12T08:42:54.047Z,6.02
2023-03-12T08:44:26.185Z,5.97
2023-03-12T08:45:58.256Z,5.95
2023-03-12T08:47:30.061Z,5.98
2023-03-12T08:49:01.678Z,6.01
2023-03-12T08:50:33.393Z,5.97
2023-03-12T08:52:06.637Z,5.99
2023-03-12T08:53:38.300Z,6.01
2023-03-12T08:55:10.378Z,6.06
2023-03-12T08:56:43.737Z,6.02
2023-03-12T08:58:15.480Z,6.04
2023-03-12T08:59:47.246Z,6.07
2023-03-12T09:01:18.835Z,6.06
2023-03-12T09:02:52.182Z,6.05
2023-03-12T09:04:24.148Z,6.07
2023-03-12T09:06:02.739Z,6.04
2023-03-12T09:07:35.710Z,6.06
2023-03-12T09:09:10.739Z,6.07
2023-03-12T09:10:47.161Z,6.05
2023-03-12T09:12:18.800Z,6.01
2023-03-12T09:14:16.904Z,6.00
2023-03-12T09:15:42.221Z,6.03
2023-03-12T09:17:15.173Z,6.00
2023-03-12T09:18:48.009Z,6.00
2023-03-12T09:20:20.652Z,5.97
2023-03-12T09:21:52.297Z,6.00
2023-03-12T09:23:25.820Z,6.02
2023-03-12T09:24:57.456Z,6.05
2023-03-12T09:26:29.147Z,6.07
2023-03-12T09:28:02.176Z,6.04
2023-03-12T09:29:33.756Z,6.06
2023-03-12T09:31:05.962Z,6.08
2023-03-12T09:32:37.598Z,6.14
2023-03-12T09:34:09.228Z,6.13
2023-03-12T09:35:40.888Z,6.13
2023-03-12T09:37:12.561Z,6.10
2023-03-12T09:38:46.077Z,6.13
2023-03-12T09:40:19.580Z,6.16
2023-03-12T09:41:51.537Z,6.18
2023-03-12T09:43:25.442Z,6.18
2023-03-12T09:45:00.276Z,6.16
2023-03-12T09:46:35.088Z,6.14
2023-03-12T09:48:07.864Z,6.14
2023-03-12T09:49:43.275Z,6.18
2023-03-12T09:51:17.932Z,6.24
2023-03-12T09:52:53.196Z,6.28
2023-03-12T09:54:29.672Z,6.30
2023-03-12T09:56:02.987Z,6.37
2023-03-12T09:57:35.093Z,6.40
2023-03-12T09:59:10.294Z,6.45
2023-03-12T10:00:42.088Z,6.51
2023-03-12T10:02:27.229Z,6.55
2023-03-12T10:04:13.886Z,6.65
2023-03-12T10:05:47.700Z,6.76
2023-03-12T10:07:24.586Z,6.79
2023-03-12T10:09:03.602Z,6.83
2023-03-12T10:10:46.346Z,6.91
2023-03-12T10:12:24.992Z,7.00
2023-03-12T10:14:01.724Z,7.12
2023-03-12T10:15:42.406Z,7.21
2023-03-12T10:17:26.870Z,7.28
2023-03-12T10:19:07.449Z,7.36
2023-03-12T10:20:56.735Z,7.37
2023-03-12T10:22:32.717Z,7.38
2023-03-12T10:24:11.340Z,7.42
2023-03-12T10:25:47.640Z,7.47
2023-03-12T10:27:22.963Z,7.52
2023-03-12T10:28:57.820Z,7.60
2023-03-12T10:30:31.853Z,7.68
2023-03-12T10:32:05.378Z,7.71
2023-03-12T10:33:50.311Z,7.76
2023-03-12T10:35:22.633Z,7.77
2023-03-12T10:36:58.829Z,7.86
2023-03-12T10:38:30.687Z,7.92
2023-03-12T10:40:04.752Z,8.06
2023-03-12T10:41:38.304Z,8.08
2023-03-12T10:43:10.072Z,8.10
2023-03-12T10:44:41.821Z,8.14
2023-03-12T10:46:30.944Z,8.21
2023-03-12T10:48:04.793Z,8.33
2023-03-12T10:49:37.400Z,8.34
2023-03-12T10:51:09.769Z,8.36
2023-03-12T10:52:41.815Z,8.38
2023-03-12T10:54:21.827Z,8.44
2023-03-12T10:56:01.662Z,8.46
2023-03-12T10:57:41.204Z,8.46
2023-03-12T10:59:20.960Z,8.53
2023-03-12T11:00:57.289Z,8.57
2023-03-12T11:02:31.072Z,8.65
2023-03-12T11:04:09.155Z,8.71
2023-03-12T11:05:48.570Z,8.78
2023-03-12T11:07:23.096Z,8.83
2023-03-12T11:09:16.174Z,8.86
2023-03-12T11:10:49.725Z,8.94
2023-03-12T11:12:27.232Z,8.97
2023-03-12T11:14:15.888Z,8.98
2023-03-12T11:15:48.177Z,9.03
2023-03-12T11:17:21.482Z,9.15
2023-03-12T11:18:57.806Z,9.26
2023-03-12T11:20:30.407Z,9.36
2023-03-12T11:22:04.761Z,9.42
2023-03-12T11:23:38.082Z,9.47
2023-03-12T11:25:20.270Z,9.55
2023-03-12T11:26:53.716Z,9.68
2023-03-12T11:28:28.839Z,9.80
2023-03-12T11:30:03.787Z,9.92
2023-03-12T11:31:47.255Z,10.01
2023-03-12T11:33:19.392Z,10.11
2023-03-12T11:34:52.739Z,10.21
2023-03-12T11:36:38.716Z,10.30
2023-03-12T11:38:14.709Z,10.40
2023-03-12T11:39:52.207Z,10.50
2023-03-12T11:41:30.929Z,10.54
2023-03-12T11:43:14.784Z,10.59
2023-03-12T11:44:55.134Z,10.68
2023-03-12T11:46:33.085Z,10.74
2023-03-12T11:48:10.182Z,10.80
2023-03-12T11:49:50.952Z,10.89
2023-03-12T11:51:35.485Z,10.99
2023-03-12T11:53:16.815Z,11.10
2023-03-12T11:54:58.115Z,11.14
2023-03-12T11:56:30.568Z,11.15
2023-03-12T11:58:11.634Z,11.24
2023-03-12T11:59:47.411Z,11.35
2023-03-12T12:01:23.208Z,11.46
2023-03-12T12:03:15.846Z,11.56
2023-03-12T12:05:15.654Z,11.63
2023-03-12T12:06:58.434Z,11.75
2023-03-12T12:08:40.626Z,11.83
2023-03-12T12:10:23.264Z,11.95
2023-03-12T12:12:11.504Z,12.08
2023-03-12T12:13:50.889Z,12.21
2023-03-12T12:15:28.058Z,12.39
2023-03-12T12:17:06.019Z,12.65
2023-03-12T12:18:47.466Z,12.85
2023-03-12T12:20:29.566Z,12.92
2023-03-12T12:22:08.160Z,13.12
2023-03-12T12:23:46.121Z,13.24
2023-03-12T12:25:25.948Z,13.31
2023-03-12T12:27:03.829Z,13.46
2023-03-12T12:28:54.211Z,13.65
2023-03-12T12:30:33.654Z,13.85
2023-03-12T12:32:08.758Z,13.97
2023-03-12T12:33:55.183Z,14.10
2023-03-12T12:35:34.537Z,14.16
2023-03-12T12:37:19.213Z,14.26
2023-03-12T12:38:54.626Z,14.32
2023-03-12T12:40:29.329Z,14.33
2023-03-12T12:42:04.421Z,14.43
2023-03-12T12:43:37.523Z,14.53
2023-03-12T12:45:12.636Z,14.63
2023-03-12T12:46:48.136Z,14.76
2023-03-12T12:48:21.853Z,14.96
2023-03-12T12:49:57.511Z,15.15
2023-03-12T12:51:34.640Z,15.49
2023-03-12T12:53:11.774Z,15.82
2023-03-12T12:54:51.773Z,16.11
2023-03-12T12:56:27.308Z,16.21
2023-03-12T12:58:01.714Z,16.26
2023-03-12T12:59:36.262Z,16.19
2023-03-12T13:01:09.434Z,15.97
2023-03-12T13:02:42.907Z,15.73
2023-03-12T13:04:17.637Z,15.55
2023-03-12T13:05:57.442Z,15.40
2023-03-12T13:07:31.565Z,15.17
2023-03-12T13:09:14.286Z,14.96
2023-03-12T13:10:57.558Z,14.71
2023-03-12T13:12:31.124Z,14.49
2023-03-12T13:14:19.482Z,14.35
2023-03-12T13:15:51.367Z,14.25
2023-03-12T13:17:31.892Z,14.22
2023-03-12T13:19:08.132Z,14.21
2023-03-12T13:20:43.700Z,14.25
2023-03-12T13:22:18.945Z,14.26
2023-03-12T13:23:55.360Z,14.26
2023-03-12T13:25:30.860Z,14.22
2023-03-12T13:27:07.632Z,14.18
2023-03-12T13:29:11.401Z,14.13
2023-03-12T13:30:47.854Z,14.10
2023-03-12T13:32:37.712Z,14.10
2023-03-12T13:34:28.333Z,14.09
2023-03-12T13:36:05.502Z,14.09
2023-03-12T13:37:54.857Z,14.09
2023-03-12T13:39:32.134Z,14.08
2023-03-12T13:41:04.715Z,14.06
2023-03-12T13:42:38.613Z,14.04
2023-03-12T13:44:23.507Z,14.07
2023-03-12T13:46:00.174Z,14.12
2023-03-12T13:47:37.282Z,14.15
2023-03-12T13:49:14.014Z,14.18
2023-03-12T13:50:51.918Z,14.25
2023-03-12T13:52:25.486Z,14.34
2023-03-12T13:53:59.582Z,14.36
2023-03-12T13:55:33.752Z,14.37
2023-03-12T13:57:10.968Z,14.32
2023-03-12T13:58:48.224Z,14.31
2023-03-12T14:00:21.258Z,14.32
2023-03-12T14:01:55.946Z,14.30
2023-03-12T14:03:29.316Z,14.33
2023-03-12T14:05:06.128Z,14.29
2023-03-12T14:06:50.543Z,14.19
2023-03-12T14:08:29.590Z,14.18
2023-03-12T14:10:09.046Z,14.20
2023-03-12T14:11:50.825Z,14.17
2023-03-12T14:13:31.138Z,14.09
2023-03-12T14:15:15.996Z,14.02
2023-03-12T14:16:51.823Z,13.94
2023-03-12T14:18:26.569Z,13.93
2023-03-12T14:20:03.601Z,13.91
2023-03-12T14:21:39.957Z,13.90
2023-03-12T14:23:15.015Z,13.92
2023-03-12T14:24:49.649Z,13.91
2023-03-12T14:26:24.558Z,13.91
2023-03-12T14:27:58.067Z,13.89
2023-03-12T14:29:34.076Z,13.87
2023-03-12T14:31:07.393Z,13.85
2023-03-12T14:32:40.349Z,13.78
2023-03-12T14:34:16.250Z,13.84
2023-03-12T14:35:53.561Z,13.92
2023-03-12T14:37:29.175Z,13.98
2023-03-12T14:39:09.492Z,14.07
2023-03-12T14:40:46.065Z,14.16
2023-03-12T14:42:25.947Z,14.20
2023-03-12T14:44:04.874Z,14.22
2023-03-12T14:45:40.592Z,14.27
2023-03-12T14:47:17.427Z,14.36
2023-03-12T14:48:50.396Z,14.42
2023-03-12T14:50:24.122Z,14.46
2023-03-12T14:51:56.350Z,14.45
2023-03-12T14:53:29.224Z,14.46
2023-03-12T14:55:01.960Z,14.44
2023-03-12T14:56:35.507Z,14.51
2023-03-12T14:58:15.286Z,14.60
2023-03-12T14:59:53.883Z,14.72
2023-03-12T15:01:27.707Z,14.77
2023-03-12T15:03:03.555Z,14.80
2023-03-12T15:04:35.437Z,14.83
2023-03-12T15:06:12.895Z,14.84
2023-03-12T15:07:45.970Z,14.93
2023-03-12T15:09:19.541Z,14.91
2023-03-12T15:10:53.747Z,15.05
2023-03-12T15:12:26.790Z,15.08
2023-03-12T15:14:02.430Z,15.15
2023-03-12T15:15:39.735Z,15.24
2023-03-12T15:17:16.195Z,15.33
2023-03-12T15:18:50.010Z,15.37
2023-03-12T15:20:23.777Z,15.36
2023-03-12T15:21:55.903Z,15.30
2023-03-12T15:23:29.242Z,15.31
2023-03-12T15:25:02.317Z,15.30
2023-03-12T15:26:38.283Z,15.28
2023-03-12T15:28:24.870Z,15.20
2023-03-12T15:29:58.057Z,15.10
2023-03-12T15:31:42.245Z,15.09
2023-03-12T15:33:24.579Z,15.04
2023-03-12T15:34:59.101Z,15.03
2023-03-12T15:36:31.846Z,15.08
2023-03-12T15:38:03.539Z,15.06
2023-03-12T15:39:36.101Z,15.07
2023-03-12T15:41:09.671Z,15.04
2023-03-12T15:42:43.716Z,15.02
2023-03-12T15:44:18.791Z,15.09
2023-03-12T15:45:56.930Z,15.12
2023-03-12T15:47:32.053Z,15.15
2023-03-12T15:49:04.223Z,15.12
2023-03-12T15:50:38.318Z,15.09
2023-03-12T15:52:26.505Z,15.08
2023-03-12T15:54:02.386Z,15.05
2023-03-12T15:55:36.978Z,15.05
2023-03-12T15:57:12.029Z,15.02
2023-03-12T15:58:43.687Z,14.98
2023-03-12T16:00:20.340Z,14.90
2023-03-12T16:01:53.296Z,14.84
2023-03-12T16:03:26.688Z,14.74
2023-03-12T16:04:58.243Z,14.69
2023-03-12T16:06:30.225Z,14.60
2023-03-12T16:08:02.322Z,14.54
2023-03-12T16:09:34.757Z,14.47
2023-03-12T16:11:10.880Z,14.42
2023-03-12T16:12:43.364Z,14.38
2023-03-12T16:14:17.402Z,14.38
2023-03-12T16:15:49.275Z,14.39
2023-03-12T16:17:22.462Z,14.37
2023-03-12T16:18:55.521Z,14.39
2023-03-12T16:20:28.620Z,14.36
2023-03-12T16:22:02.006Z,14.29
2023-03-12T16:23:34.650Z,14.27
2023-03-12T16:25:11.985Z,14.21
2023-03-12T16:26:48.031Z,14.17
2023-03-12T16:28:20.732Z,14.12
2023-03-12T16:29:52.481Z,14.13
2023-03-12T16:31:24.169Z,14.13
2023-03-12T16:32:56.121Z,14.12
2023-03-12T16:34:29.149Z,14.10
2023-03-12T16:36:00.844Z,14.07
2023-03-12T16:37:34.838Z,14.04
2023-03-12T16:39:06.775Z,14.00
2023-03-12T16:40:39.912Z,13.95
2023-03-12T16:42:16.643Z,13.98
2023-03-12T16:43:50.293Z,13.99
2023-03-12T16:45:23.027Z,13.96
2023-03-12T16:46:55.655Z,13.89
2023-03-12T16:48:27.508Z,13.89
2023-03-12T16:50:00.732Z,13.88
2023-03-12T16:51:32.564Z,13.83
2023-03-12T16:53:04.903Z,13.87
2023-03-12T16:54:36.562Z,13.82
2023-03-12T16:56:14.687Z,13.82
2023-03-12T16:57:48.368Z,13.79
2023-03-12T16:59:23.908Z,13.78
2023-03-12T17:00:56.031Z,13.74
2023-03-12T17:02:29.770Z,13.70
2023-03-12T17:04:01.548Z,13.67
2023-03-12T17:05:34.734Z,13.65
2023-03-12T17:07:06.509Z,13.60
2023-03-12T17:08:38.218Z,13.60
2023-03-12T17:10:10.965Z,13.58
2023-03-12T17:11:43.338Z,13.54
2023-03-12T17:13:20.550Z,13.51
2023-03-12T17:14:55.286Z,13.46
2023-03-12T17:16:27.314Z,13.40
2023-03-12T17:18:03.268Z,13.38
2023-03-12T17:19:35.055Z,13.36
2023-03-12T17:21:10.453Z,13.36
2023-03-12T17:22:42.477Z,13.31
2023-03-12T17:24:15.691Z,13.31
2023-03-12T17:25:47.732Z,13.27
2023-03-12T17:27:19.395Z,13.25
2023-03-12T17:28:51.558Z,13.24
2023-03-12T17:30:23.800Z,13.21
2023-03-12T17:31:55.463Z,13.21
2023-03-12T17:33:27.719Z,13.22
2023-03-12T17:35:03.167Z,13.20
2023-03-12T17:36:40.308Z,13.20
2023-03-12T17:38:13.917Z,13.19
2023-03-12T17:39:45.495Z,13.16
2023-03-12T17:41:26.172Z,13.14
2023-03-12T17:42:58.880Z,13.16
2023-03-12T17:44:34.515Z,13.14
2023-03-12T17:46:07.108Z,13.14
2023-03-12T17:47:41.617Z,13.12
2023-03-12T17:49:15.835Z,13.09
2023-03-12T17:50:47.506Z,13.09
2023-03-12T17:52:21.600Z,13.07
2023-03-12T17:53:53.300Z,13.06
2023-03-12T17:55:25.221Z,13.02
2023-03-12T17:56:56.971Z,12.98
2023-03-12T17:58:28.730Z,12.97
2023-03-12T18:00:00.423Z,12.94
2023-03-12T18:01:32.623Z,12.94
2023-03-12T18:03:04.619Z,12.93
2023-03-12T18:04:36.359Z,12.90
2023-03-12T18:06:08.053Z,12.90
2023-03-12T18:07:41.679Z,12.88
2023-03-12T18:09:13.439Z,12.87
2023-03-12T18:10:45.487Z,12.88
2023-03-12T18:12:17.100Z,12.86
2023-03-12T18:13:48.775Z,12.87
2023-03-12T18:15:21.701Z,12.87
2023-03-12T18:16:53.469Z,12.86
2023-03-12T18:18:28.506Z,12.85
2023-03-12T18:20:01.349Z,12.83
2023-03-12T18:21:33.039Z,12.81
2023-03-12T18:23:08.718Z,12.80
2023-03-12T18:24:40.436Z,12.81
2023-03-12T18:26:13.421Z,12.82
2023-03-12T18:27:45.185Z,12.81
2023-03-12T18:29:17.253Z,12.80
2023-03-12T18:30:49.754Z,12.80
2023-03-12T18:32:21.425Z,12.81
2023-03-12T18:33:53.446Z,12.80
2023-03-12T18:35:29.133Z,12.79
2023-03-12T18:37:01.192Z,12.80
2023-03-12T18:38:34.921Z,12.79
2023-03-12T18:40:08.327Z,12.76
2023-03-12T18:41:41.924Z,12.79
2023-03-12T18:43:14.449Z,12.78
2023-03-12T18:44:46.106Z,12.77
2023-03-12T18:46:19.104Z,12.75
2023-03-12T18:47:52.044Z,12.76
2023-03-12T18:49:23.789Z,12.77
2023-03-12T18:50:55.723Z,12.76
2023-03-12T18:52:27.917Z,12.75
2023-03-12T18:54:01.289Z,12.76
2023-03-12T18:55:35.105Z,12.76
2023-03-12T18:57:07.012Z,12.75
2023-03-12T18:58:40.114Z,12.76
2023-03-12T19:00:17.638Z,12.73
2023-03-12T19:01:50.170Z,12.74
2023-03-12T19:03:23.811Z,12.69
2023-03-12T19:04:56.379Z,12.65
2023-03-12T19:06:29.639Z,12.64
2023-03-12T19:08:05.080Z,12.63
2023-03-12T19:09:38.085Z,12.62
2023-03-12T19:11:10.710Z,12.61
2023-03-12T19:12:53.379Z,12.62
2023-03-12T19:14:25.507Z,12.65
2023-03-12T19:15:59.913Z,12.63
2023-03-12T19:17:31.653Z,12.63
2023-03-12T19:19:03.480Z,12.66
2023-03-12T19:20:36.616Z,12.65
2023-03-12T19:22:08.525Z,12.66
2023-03-12T19:23:40.224Z,12.65
2023-03-12T19:25:13.905Z,12.66
2023-03-12T19:26:45.847Z,12.65
2023-03-12T19:28:17.571Z,12.64
2023-03-12T19:29:49.489Z,12.66
2023-03-12T19:31:21.554Z,12.65
2023-03-12T19:32:56.445Z,12.65
2023-03-12T19:34:28.424Z,12.65
2023-03-12T19:36:00.704Z,12.65
2023-03-12T19:37:32.472Z,12.64
2023-03-12T19:39:11.924Z,12.64
2023-03-12T19:40:54.253Z,12.65
2023-03-12T19:42:30.018Z,12.63
2023-03-12T19:44:01.660Z,12.64
2023-03-12T19:45:36.854Z,12.68
2023-03-12T19:47:09.220Z,12.65
2023-03-12T19:48:40.901Z,12.64
2023-03-12T19:50:12.821Z,12.63
2023-03-12T19:51:44.708Z,12.60
2023-03-12T19:53:17.755Z,12.58
2023-03-12T19:55:03.200Z,12.57
2023-03-12T19:56:37.152Z,12.55
2023-03-12T19:58:08.900Z,12.56
2023-03-12T19:59:40.482Z,12.53
2023-03-12T20:01:13.342Z,12.51
2023-03-12T20:02:46.163Z,12.49
2023-03-12T20:04:17.803Z,12.48
2023-03-12T20:05:50.636Z,12.47
2023-03-12T20:07:22.588Z,12.48
2023-03-12T20:08:54.569Z,12.47
2023-03-12T20:10:27.937Z,12.43
2023-03-12T20:12:01.063Z,12.42
2023-03-12T20:13:33.151Z,12.41
2023-03-12T20:15:05.570Z,12.39
2023-03-12T20:16:37.962Z,12.37
2023-03-12T20:18:09.597Z,12.35
2023-03-12T20:19:42.584Z,12.36
2023-03-12T20:21:14.343Z,12.34
2023-03-12T20:22:46.104Z,12.34
2023-03-12T20:24:17.899Z,12.34
2023-03-12T20:25:50.242Z,12.32
2023-03-12T20:27:23.190Z,12.32
2023-03-12T20:28:54.898Z,12.33
2023-03-12T20:30:27.051Z,12.33
2023-03-12T20:31:58.807Z,12.33
2023-03-12T20:33:30.442Z,12.32
2023-03-12T20:35:02.101Z,12.34
2023-03-12T20:36:33.878Z,12.33